sensor_id;sensor_type;location;lat;lon;timestamp;P1;durP1;ratioP1;P2;durP2;ratioP2
60169;SDS011;46042;49.444;6.862;2023-07-08T00:01:11;8.77;;;4.90;;
60169;SDS011;46042;49.444;6.862;2023-07-08T00:03:40;9.00;;;4.93;;
60169;SDS011;46042;49.444;6.862;2023-07-08T00:06:17;9.18;;;5.07;;
60169;SDS011;46042;49.444;6.862;2023-07-08T00:08:49;9.02;;;5.35;;
60169;SDS011;46042;49.444;6.862;2023-07-08T00:11:16;10.10;;;5.35;;
60169;SDS011;46042;49.444;6.862;2023-07-08T00:13:43;10.50;;;5.47;;
60169;SDS011;46042;49.444;6.862;2023-07-08T00:16:12;9.32;;;5.68;;
60169;SDS011;46042;49.444;6.862;2023-07-08T00:18:40;9.48;;;5.63;;
60169;SDS011;46042;49.444;6.862;2023-07-08T00:21:08;8.90;;;5.00;;
60169;SDS011;46042;49.444;6.862;2023-07-08T00:23:36;12.88;;;5.07;;
60169;SDS011;46042;49.444;6.862;2023-07-08T00:26:07;9.38;;;4.88;;
60169;SDS011;46042;49.444;6.862;2023-07-08T00:28:37;9.27;;;5.57;;
60169;SDS011;46042;49.444;6.862;2023-07-08T00:31:07;8.93;;;5.28;;
60169;SDS011;46042;49.444;6.862;2023-07-08T00:33:36;10.10;;;5.60;;
60169;SDS011;46042;49.444;6.862;2023-07-08T00:36:05;10.35;;;5.40;;
60169;SDS011;46042;49.444;6.862;2023-07-08T00:38:37;9.32;;;4.78;;
60169;SDS011;46042;49.444;6.862;2023-07-08T00:41:11;11.70;;;5.65;;
60169;SDS011;46042;49.444;6.862;2023-07-08T00:43:51;9.82;;;5.68;;
60169;SDS011;46042;49.444;6.862;2023-07-08T00:51:54;9.85;;;5.07;;
60169;SDS011;46042;49.444;6.862;2023-07-08T00:54:21;8.32;;;4.80;;
60169;SDS011;46042;49.444;6.862;2023-07-08T00:56:49;12.57;;;5.45;;
60169;SDS011;46042;49.444;6.862;2023-07-08T01:00:03;7.60;;;4.72;;
60169;SDS011;46042;49.444;6.862;2023-07-08T01:02:33;9.18;;;4.88;;
60169;SDS011;46042;49.444;6.862;2023-07-08T01:05:05;10.27;;;5.00;;
60169;SDS011;46042;49.444;6.862;2023-07-08T01:07:38;7.80;;;4.82;;
60169;SDS011;46042;49.444;6.862;2023-07-08T01:10:12;8.85;;;5.13;;
60169;SDS011;46042;49.444;6.862;2023-07-08T01:12:44;8.27;;;4.57;;
60169;SDS011;46042;49.444;6.862;2023-07-08T01:15:14;8.55;;;5.30;;
60169;SDS011;46042;49.444;6.862;2023-07-08T01:17:42;9.85;;;5.57;;
60169;SDS011;46042;49.444;6.862;2023-07-08T01:20:10;8.85;;;5.20;;
60169;SDS011;46042;49.444;6.862;2023-07-08T01:22:40;10.02;;;5.80;;
60169;SDS011;46042;49.444;6.862;2023-07-08T01:25:08;11.27;;;5.13;;
60169;SDS011;46042;49.444;6.862;2023-07-08T01:27:38;10.98;;;5.05;;
60169;SDS011;46042;49.444;6.862;2023-07-08T01:32:36;10.77;;;5.50;;
60169;SDS011;46042;49.444;6.862;2023-07-08T01:35:09;10.90;;;5.05;;
60169;SDS011;46042;49.444;6.862;2023-07-08T01:37:43;8.50;;;5.40;;
60169;SDS011;46042;49.444;6.862;2023-07-08T01:43:04;10.65;;;5.53;;
60169;SDS011;46042;49.444;6.862;2023-07-08T01:48:05;9.45;;;5.00;;
60169;SDS011;46042;49.444;6.862;2023-07-08T01:50:35;9.65;;;5.55;;
60169;SDS011;46042;49.444;6.862;2023-07-08T01:53:12;9.25;;;5.05;;
60169;SDS011;46042;49.444;6.862;2023-07-08T01:55:41;9.75;;;4.97;;
60169;SDS011;46042;49.444;6.862;2023-07-08T01:58:08;7.93;;;5.03;;
60169;SDS011;46042;49.444;6.862;2023-07-08T02:00:35;10.02;;;5.28;;
60169;SDS011;46042;49.444;6.862;2023-07-08T02:03:02;9.45;;;5.68;;
60169;SDS011;46042;49.444;6.862;2023-07-08T02:05:28;9.18;;;5.00;;
60169;SDS011;46042;49.444;6.862;2023-07-08T02:07:55;9.30;;;5.63;;
60169;SDS011;46042;49.444;6.862;2023-07-08T02:10:22;9.10;;;5.20;;
60169;SDS011;46042;49.444;6.862;2023-07-08T02:12:51;9.02;;;5.00;;
60169;SDS011;46042;49.444;6.862;2023-07-08T02:15:18;12.68;;;5.97;;
60169;SDS011;46042;49.444;6.862;2023-07-08T02:17:45;8.45;;;5.13;;
60169;SDS011;46042;49.444;6.862;2023-07-08T02:20:12;7.80;;;4.60;;
60169;SDS011;46042;49.444;6.862;2023-07-08T02:22:38;11.70;;;5.25;;
60169;SDS011;46042;49.444;6.862;2023-07-08T02:25:05;9.48;;;5.55;;
60169;SDS011;46042;49.444;6.862;2023-07-08T02:27:32;10.07;;;5.25;;
60169;SDS011;46042;49.444;6.862;2023-07-08T02:29:59;9.52;;;5.93;;
60169;SDS011;46042;49.444;6.862;2023-07-08T02:32:26;11.32;;;5.30;;
60169;SDS011;46042;49.444;6.862;2023-07-08T02:34:52;9.05;;;5.10;;
60169;SDS011;46042;49.444;6.862;2023-07-08T02:37:19;9.38;;;5.18;;
60169;SDS011;46042;49.444;6.862;2023-07-08T02:39:46;10.85;;;5.32;;
60169;SDS011;46042;49.444;6.862;2023-07-08T02:42:12;9.07;;;5.35;;
60169;SDS011;46042;49.444;6.862;2023-07-08T02:44:39;10.85;;;5.63;;
60169;SDS011;46042;49.444;6.862;2023-07-08T02:47:06;11.88;;;5.25;;
60169;SDS011;46042;49.444;6.862;2023-07-08T02:49:32;9.55;;;5.45;;
60169;SDS011;46042;49.444;6.862;2023-07-08T02:52:00;11.90;;;5.72;;
60169;SDS011;46042;49.444;6.862;2023-07-08T02:54:26;9.77;;;5.47;;
60169;SDS011;46042;49.444;6.862;2023-07-08T02:56:53;12.10;;;5.65;;
60169;SDS011;46042;49.444;6.862;2023-07-08T02:59:20;9.55;;;5.15;;
60169;SDS011;46042;49.444;6.862;2023-07-08T03:01:46;10.73;;;5.45;;
60169;SDS011;46042;49.444;6.862;2023-07-08T03:04:13;9.35;;;5.63;;
60169;SDS011;46042;49.444;6.862;2023-07-08T03:06:44;10.20;;;5.55;;
60169;SDS011;46042;49.444;6.862;2023-07-08T03:09:12;12.20;;;5.72;;
60169;SDS011;46042;49.444;6.862;2023-07-08T03:11:39;8.30;;;5.50;;
60169;SDS011;46042;49.444;6.862;2023-07-08T03:14:06;7.82;;;5.25;;
60169;SDS011;46042;49.444;6.862;2023-07-08T03:16:33;9.68;;;5.82;;
60169;SDS011;46042;49.444;6.862;2023-07-08T03:19:00;8.98;;;5.65;;
60169;SDS011;46042;49.444;6.862;2023-07-08T03:21:26;9.10;;;5.30;;
60169;SDS011;46042;49.444;6.862;2023-07-08T03:23:53;9.10;;;5.40;;
60169;SDS011;46042;49.444;6.862;2023-07-08T03:26:21;9.55;;;5.53;;
60169;SDS011;46042;49.444;6.862;2023-07-08T03:28:50;10.18;;;6.00;;
60169;SDS011;46042;49.444;6.862;2023-07-08T03:31:17;9.07;;;5.55;;
60169;SDS011;46042;49.444;6.862;2023-07-08T03:33:44;9.40;;;5.38;;
60169;SDS011;46042;49.444;6.862;2023-07-08T03:36:12;12.10;;;5.68;;
60169;SDS011;46042;49.444;6.862;2023-07-08T03:38:57;11.73;;;5.63;;
60169;SDS011;46042;49.444;6.862;2023-07-08T03:41:24;10.23;;;5.50;;
60169;SDS011;46042;49.444;6.862;2023-07-08T03:43:52;9.73;;;5.55;;
60169;SDS011;46042;49.444;6.862;2023-07-08T03:46:19;12.40;;;5.90;;
60169;SDS011;46042;49.444;6.862;2023-07-08T03:48:50;9.98;;;5.43;;
60169;SDS011;46042;49.444;6.862;2023-07-08T03:51:19;9.95;;;5.60;;
60169;SDS011;46042;49.444;6.862;2023-07-08T03:53:48;8.95;;;5.00;;
60169;SDS011;46042;49.444;6.862;2023-07-08T03:56:15;14.05;;;5.82;;
60169;SDS011;46042;49.444;6.862;2023-07-08T03:58:42;12.85;;;6.07;;
60169;SDS011;46042;49.444;6.862;2023-07-08T04:01:15;9.52;;;5.78;;
60169;SDS011;46042;49.444;6.862;2023-07-08T04:03:44;7.88;;;4.97;;
60169;SDS011;46042;49.444;6.862;2023-07-08T04:06:11;10.18;;;5.55;;
60169;SDS011;46042;49.444;6.862;2023-07-08T04:08:37;12.43;;;5.82;;
60169;SDS011;46042;49.444;6.862;2023-07-08T04:11:04;8.68;;;5.60;;
60169;SDS011;46042;49.444;6.862;2023-07-08T04:13:31;12.18;;;5.55;;
60169;SDS011;46042;49.444;6.862;2023-07-08T04:15:59;9.80;;;6.03;;
60169;SDS011;46042;49.444;6.862;2023-07-08T04:18:29;10.98;;;5.20;;
60169;SDS011;46042;49.444;6.862;2023-07-08T04:20:56;7.72;;;5.00;;
60169;SDS011;46042;49.444;6.862;2023-07-08T04:23:26;9.85;;;5.50;;
60169;SDS011;46042;49.444;6.862;2023-07-08T04:25:54;8.50;;;4.50;;
60169;SDS011;46042;49.444;6.862;2023-07-08T04:28:22;11.88;;;6.03;;
60169;SDS011;46042;49.444;6.862;2023-07-08T04:30:49;9.68;;;5.25;;
60169;SDS011;46042;49.444;6.862;2023-07-08T04:33:16;10.05;;;5.53;;
60169;SDS011;46042;49.444;6.862;2023-07-08T04:35:43;9.30;;;5.30;;
60169;SDS011;46042;49.444;6.862;2023-07-08T04:38:14;11.20;;;5.35;;
60169;SDS011;46042;49.444;6.862;2023-07-08T04:40:43;11.10;;;5.68;;
60169;SDS011;46042;49.444;6.862;2023-07-08T04:43:10;11.43;;;5.60;;
60169;SDS011;46042;49.444;6.862;2023-07-08T04:45:41;11.05;;;5.43;;
60169;SDS011;46042;49.444;6.862;2023-07-08T04:48:11;7.43;;;5.05;;
60169;SDS011;46042;49.444;6.862;2023-07-08T04:50:41;7.95;;;4.85;;
60169;SDS011;46042;49.444;6.862;2023-07-08T04:53:09;10.25;;;5.22;;
60169;SDS011;46042;49.444;6.862;2023-07-08T04:55:50;13.30;;;7.47;;
60169;SDS011;46042;49.444;6.862;2023-07-08T04:58:19;12.07;;;7.43;;
60169;SDS011;46042;49.444;6.862;2023-07-08T05:00:45;10.57;;;5.95;;
60169;SDS011;46042;49.444;6.862;2023-07-08T05:03:12;13.50;;;6.07;;
60169;SDS011;46042;49.444;6.862;2023-07-08T05:05:40;12.98;;;5.95;;
60169;SDS011;46042;49.444;6.862;2023-07-08T05:08:07;10.55;;;5.78;;
60169;SDS011;46042;49.444;6.862;2023-07-08T05:10:34;9.38;;;5.35;;
60169;SDS011;46042;49.444;6.862;2023-07-08T05:13:00;9.15;;;5.28;;
60169;SDS011;46042;49.444;6.862;2023-07-08T05:15:27;12.23;;;5.53;;
60169;SDS011;46042;49.444;6.862;2023-07-08T05:17:54;11.98;;;5.32;;
60169;SDS011;46042;49.444;6.862;2023-07-08T05:20:20;10.27;;;5.40;;
60169;SDS011;46042;49.444;6.862;2023-07-08T05:22:48;7.45;;;5.13;;
60169;SDS011;46042;49.444;6.862;2023-07-08T05:25:18;10.80;;;5.95;;
60169;SDS011;46042;49.444;6.862;2023-07-08T05:27:47;10.45;;;5.38;;
60169;SDS011;46042;49.444;6.862;2023-07-08T05:30:15;16.02;;;6.65;;
60169;SDS011;46042;49.444;6.862;2023-07-08T05:32:43;10.30;;;5.53;;
60169;SDS011;46042;49.444;6.862;2023-07-08T05:35:10;10.32;;;5.60;;
60169;SDS011;46042;49.444;6.862;2023-07-08T05:37:37;8.57;;;5.35;;
60169;SDS011;46042;49.444;6.862;2023-07-08T05:40:07;16.25;;;5.63;;
60169;SDS011;46042;49.444;6.862;2023-07-08T05:42:35;11.20;;;5.30;;
60169;SDS011;46042;49.444;6.862;2023-07-08T05:45:02;8.73;;;5.18;;
60169;SDS011;46042;49.444;6.862;2023-07-08T05:47:30;8.38;;;5.30;;
60169;SDS011;46042;49.444;6.862;2023-07-08T05:49:56;8.27;;;5.10;;
60169;SDS011;46042;49.444;6.862;2023-07-08T05:52:23;9.77;;;5.20;;
60169;SDS011;46042;49.444;6.862;2023-07-08T05:54:50;9.70;;;5.63;;
60169;SDS011;46042;49.444;6.862;2023-07-08T05:57:19;12.63;;;5.85;;
60169;SDS011;46042;49.444;6.862;2023-07-08T05:59:47;8.20;;;5.13;;
60169;SDS011;46042;49.444;6.862;2023-07-08T06:02:13;9.48;;;5.70;;
60169;SDS011;46042;49.444;6.862;2023-07-08T06:04:40;9.73;;;5.45;;
60169;SDS011;46042;49.444;6.862;2023-07-08T06:07:07;11.55;;;5.25;;
60169;SDS011;46042;49.444;6.862;2023-07-08T06:09:34;9.30;;;5.47;;
60169;SDS011;46042;49.444;6.862;2023-07-08T06:12:01;14.20;;;5.70;;
60169;SDS011;46042;49.444;6.862;2023-07-08T06:14:28;7.68;;;5.28;;
60169;SDS011;46042;49.444;6.862;2023-07-08T06:16:55;9.70;;;5.65;;
60169;SDS011;46042;49.444;6.862;2023-07-08T06:19:21;9.85;;;5.47;;
60169;SDS011;46042;49.444;6.862;2023-07-08T06:21:48;8.68;;;5.45;;
60169;SDS011;46042;49.444;6.862;2023-07-08T06:24:15;8.93;;;5.57;;
60169;SDS011;46042;49.444;6.862;2023-07-08T06:26:42;11.48;;;5.45;;
60169;SDS011;46042;49.444;6.862;2023-07-08T06:29:09;9.65;;;5.57;;
60169;SDS011;46042;49.444;6.862;2023-07-08T06:31:35;13.35;;;5.30;;
60169;SDS011;46042;49.444;6.862;2023-07-08T06:34:02;13.32;;;5.22;;
60169;SDS011;46042;49.444;6.862;2023-07-08T06:36:33;11.85;;;6.05;;
60169;SDS011;46042;49.444;6.862;2023-07-08T06:38:59;8.50;;;5.80;;
60169;SDS011;46042;49.444;6.862;2023-07-08T06:41:26;9.57;;;5.53;;
60169;SDS011;46042;49.444;6.862;2023-07-08T06:43:53;13.60;;;6.32;;
60169;SDS011;46042;49.444;6.862;2023-07-08T06:46:20;12.70;;;6.20;;
60169;SDS011;46042;49.444;6.862;2023-07-08T06:48:46;13.82;;;6.30;;
60169;SDS011;46042;49.444;6.862;2023-07-08T06:51:13;13.15;;;5.93;;
60169;SDS011;46042;49.444;6.862;2023-07-08T06:53:40;11.40;;;5.75;;
60169;SDS011;46042;49.444;6.862;2023-07-08T06:56:06;9.93;;;6.00;;
60169;SDS011;46042;49.444;6.862;2023-07-08T06:58:34;12.27;;;6.28;;
60169;SDS011;46042;49.444;6.862;2023-07-08T07:01:01;9.15;;;5.65;;
60169;SDS011;46042;49.444;6.862;2023-07-08T07:03:28;9.63;;;6.03;;
60169;SDS011;46042;49.444;6.862;2023-07-08T07:05:55;8.75;;;5.28;;
60169;SDS011;46042;49.444;6.862;2023-07-08T07:08:22;11.13;;;5.40;;
60169;SDS011;46042;49.444;6.862;2023-07-08T07:10:49;10.80;;;6.03;;
60169;SDS011;46042;49.444;6.862;2023-07-08T07:13:15;12.15;;;5.75;;
60169;SDS011;46042;49.444;6.862;2023-07-08T07:15:42;11.80;;;5.85;;
60169;SDS011;46042;49.444;6.862;2023-07-08T07:18:09;10.75;;;5.38;;
60169;SDS011;46042;49.444;6.862;2023-07-08T07:20:36;7.63;;;5.20;;
60169;SDS011;46042;49.444;6.862;2023-07-08T07:23:04;12.13;;;5.70;;
60169;SDS011;46042;49.444;6.862;2023-07-08T07:25:31;6.90;;;4.65;;
60169;SDS011;46042;49.444;6.862;2023-07-08T07:27:57;8.68;;;5.25;;
60169;SDS011;46042;49.444;6.862;2023-07-08T07:30:25;11.32;;;5.22;;
60169;SDS011;46042;49.444;6.862;2023-07-08T07:32:52;8.18;;;5.13;;
60169;SDS011;46042;49.444;6.862;2023-07-08T07:35:18;15.73;;;5.00;;
60169;SDS011;46042;49.444;6.862;2023-07-08T07:37:45;7.68;;;4.68;;
60169;SDS011;46042;49.444;6.862;2023-07-08T07:40:12;8.85;;;5.25;;
60169;SDS011;46042;49.444;6.862;2023-07-08T07:42:42;9.43;;;4.70;;
60169;SDS011;46042;49.444;6.862;2023-07-08T07:45:11;15.35;;;6.00;;
60169;SDS011;46042;49.444;6.862;2023-07-08T07:47:39;9.98;;;4.97;;
60169;SDS011;46042;49.444;6.862;2023-07-08T07:50:06;11.70;;;5.55;;
60169;SDS011;46042;49.444;6.862;2023-07-08T07:52:35;10.02;;;5.38;;
60169;SDS011;46042;49.444;6.862;2023-07-08T07:55:02;10.95;;;5.03;;
60169;SDS011;46042;49.444;6.862;2023-07-08T07:57:30;10.85;;;4.95;;
60169;SDS011;46042;49.444;6.862;2023-07-08T07:59:57;7.40;;;5.15;;
60169;SDS011;46042;49.444;6.862;2023-07-08T08:02:23;7.60;;;5.18;;
60169;SDS011;46042;49.444;6.862;2023-07-08T08:04:50;13.60;;;5.40;;
60169;SDS011;46042;49.444;6.862;2023-07-08T08:07:17;8.50;;;5.10;;
60169;SDS011;46042;49.444;6.862;2023-07-08T08:09:43;10.45;;;4.75;;
60169;SDS011;46042;49.444;6.862;2023-07-08T08:12:11;7.70;;;4.90;;
60169;SDS011;46042;49.444;6.862;2023-07-08T08:14:38;7.97;;;4.97;;
60169;SDS011;46042;49.444;6.862;2023-07-08T08:17:05;11.07;;;4.93;;
60169;SDS011;46042;49.444;6.862;2023-07-08T08:19:34;7.30;;;4.10;;
60169;SDS011;46042;49.444;6.862;2023-07-08T08:22:01;9.70;;;4.57;;
60169;SDS011;46042;49.444;6.862;2023-07-08T08:24:28;8.93;;;4.70;;
60169;SDS011;46042;49.444;6.862;2023-07-08T08:26:55;10.27;;;4.70;;
60169;SDS011;46042;49.444;6.862;2023-07-08T08:29:21;12.15;;;5.10;;
60169;SDS011;46042;49.444;6.862;2023-07-08T08:31:48;7.55;;;5.28;;
60169;SDS011;46042;49.444;6.862;2023-07-08T08:34:16;8.60;;;5.05;;
60169;SDS011;46042;49.444;6.862;2023-07-08T08:36:43;10.43;;;5.43;;
60169;SDS011;46042;49.444;6.862;2023-07-08T08:39:10;13.93;;;5.90;;
60169;SDS011;46042;49.444;6.862;2023-07-08T08:41:40;7.60;;;4.57;;
60169;SDS011;46042;49.444;6.862;2023-07-08T08:44:14;12.27;;;4.78;;
60169;SDS011;46042;49.444;6.862;2023-07-08T08:51:56;16.05;;;5.13;;
60169;SDS011;46042;49.444;6.862;2023-07-08T08:54:25;9.35;;;4.97;;
60169;SDS011;46042;49.444;6.862;2023-07-08T09:01:57;8.50;;;4.43;;
60169;SDS011;46042;49.444;6.862;2023-07-08T09:04:31;9.63;;;5.00;;
60169;SDS011;46042;49.444;6.862;2023-07-08T09:07:07;9.98;;;4.72;;
60169;SDS011;46042;49.444;6.862;2023-07-08T09:09:47;7.38;;;4.30;;
60169;SDS011;46042;49.444;6.862;2023-07-08T09:12:25;8.32;;;4.68;;
60169;SDS011;46042;49.444;6.862;2023-07-08T09:14:54;8.35;;;4.43;;
60169;SDS011;46042;49.444;6.862;2023-07-08T09:17:24;8.77;;;5.10;;
60169;SDS011;46042;49.444;6.862;2023-07-08T09:25:49;8.60;;;4.18;;
60169;SDS011;46042;49.444;6.862;2023-07-08T09:28:20;7.03;;;4.30;;
60169;SDS011;46042;49.444;6.862;2023-07-08T09:30:52;7.93;;;4.55;;
60169;SDS011;46042;49.444;6.862;2023-07-08T09:33:20;8.90;;;4.50;;
60169;SDS011;46042;49.444;6.862;2023-07-08T09:35:47;7.32;;;4.55;;
60169;SDS011;46042;49.444;6.862;2023-07-08T09:38:16;10.00;;;5.00;;
60169;SDS011;46042;49.444;6.862;2023-07-08T09:40:49;10.23;;;4.68;;
60169;SDS011;46042;49.444;6.862;2023-07-08T09:43:26;42.80;;;6.00;;
60169;SDS011;46042;49.444;6.862;2023-07-08T09:46:00;9.15;;;4.68;;
60169;SDS011;46042;49.444;6.862;2023-07-08T09:48:28;6.85;;;4.63;;
60169;SDS011;46042;49.444;6.862;2023-07-08T09:53:25;7.55;;;4.40;;
60169;SDS011;46042;49.444;6.862;2023-07-08T09:55:53;9.48;;;5.40;;
60169;SDS011;46042;49.444;6.862;2023-07-08T09:58:27;7.97;;;4.80;;
60169;SDS011;46042;49.444;6.862;2023-07-08T10:01:01;11.68;;;4.65;;
60169;SDS011;46042;49.444;6.862;2023-07-08T10:03:36;11.65;;;4.93;;
60169;SDS011;46042;49.444;6.862;2023-07-08T10:06:16;8.40;;;5.05;;
60169;SDS011;46042;49.444;6.862;2023-07-08T10:08:48;9.30;;;4.70;;
60169;SDS011;46042;49.444;6.862;2023-07-08T10:13:48;7.43;;;4.75;;
60169;SDS011;46042;49.444;6.862;2023-07-08T10:16:38;12.73;;;4.40;;
60169;SDS011;46042;49.444;6.862;2023-07-08T10:19:23;10.15;;;4.50;;
60169;SDS011;46042;49.444;6.862;2023-07-08T10:22:17;11.60;;;4.80;;
60169;SDS011;46042;49.444;6.862;2023-07-08T10:28:18;7.70;;;4.85;;
60169;SDS011;46042;49.444;6.862;2023-07-08T10:34:00;9.75;;;4.25;;
60169;SDS011;46042;49.444;6.862;2023-07-08T10:36:49;6.00;;;4.15;;
60169;SDS011;46042;49.444;6.862;2023-07-08T10:39:33;7.32;;;4.15;;
60169;SDS011;46042;49.444;6.862;2023-07-08T10:44:35;7.18;;;4.53;;
60169;SDS011;46042;49.444;6.862;2023-07-08T10:53:34;8.95;;;5.05;;
60169;SDS011;46042;49.444;6.862;2023-07-08T10:55:59;8.75;;;5.15;;
60169;SDS011;46042;49.444;6.862;2023-07-08T11:07:27;11.52;;;5.20;;
60169;SDS011;46042;49.444;6.862;2023-07-08T11:10:04;9.00;;;4.45;;
60169;SDS011;46042;49.444;6.862;2023-07-08T11:12:47;7.70;;;4.25;;
60169;SDS011;46042;49.444;6.862;2023-07-08T11:17:47;8.85;;;4.43;;
60169;SDS011;46042;49.444;6.862;2023-07-08T11:26:18;9.52;;;4.82;;
60169;SDS011;46042;49.444;6.862;2023-07-08T11:28:51;9.68;;;4.53;;
60169;SDS011;46042;49.444;6.862;2023-07-08T11:31:20;7.50;;;4.57;;
60169;SDS011;46042;49.444;6.862;2023-07-08T11:33:49;10.33;;;4.50;;
60169;SDS011;46042;49.444;6.862;2023-07-08T11:36:18;9.60;;;4.18;;
60169;SDS011;46042;49.444;6.862;2023-07-08T11:38:50;16.30;;;4.60;;
60169;SDS011;46042;49.444;6.862;2023-07-08T11:41:20;8.13;;;4.57;;
60169;SDS011;46042;49.444;6.862;2023-07-08T11:43:53;11.40;;;4.82;;
60169;SDS011;46042;49.444;6.862;2023-07-08T11:46:27;9.85;;;5.20;;
60169;SDS011;46042;49.444;6.862;2023-07-08T11:48:57;6.97;;;4.85;;
60169;SDS011;46042;49.444;6.862;2023-07-08T11:51:46;8.55;;;5.00;;
60169;SDS011;46042;49.444;6.862;2023-07-08T11:54:20;9.43;;;5.30;;
60169;SDS011;46042;49.444;6.862;2023-07-08T11:59:31;12.38;;;5.13;;
60169;SDS011;46042;49.444;6.862;2023-07-08T12:02:02;14.15;;;5.75;;
60169;SDS011;46042;49.444;6.862;2023-07-08T12:04:30;9.07;;;5.90;;
60169;SDS011;46042;49.444;6.862;2023-07-08T12:07:20;10.40;;;5.47;;
60169;SDS011;46042;49.444;6.862;2023-07-08T12:10:03;12.10;;;5.00;;
60169;SDS011;46042;49.444;6.862;2023-07-08T12:12:35;9.25;;;4.95;;
60169;SDS011;46042;49.444;6.862;2023-07-08T12:15:23;8.90;;;5.22;;
60169;SDS011;46042;49.444;6.862;2023-07-08T12:20:31;8.70;;;4.70;;
60169;SDS011;46042;49.444;6.862;2023-07-08T12:23:07;11.32;;;4.60;;
60169;SDS011;46042;49.444;6.862;2023-07-08T12:25:37;11.73;;;4.43;;
60169;SDS011;46042;49.444;6.862;2023-07-08T12:28:04;14.85;;;5.25;;
60169;SDS011;46042;49.444;6.862;2023-07-08T12:30:31;11.57;;;3.95;;
60169;SDS011;46042;49.444;6.862;2023-07-08T12:32:59;6.05;;;3.92;;
60169;SDS011;46042;49.444;6.862;2023-07-08T12:38:01;8.63;;;4.25;;
60169;SDS011;46042;49.444;6.862;2023-07-08T12:40:30;8.80;;;4.15;;
60169;SDS011;46042;49.444;6.862;2023-07-08T12:42:58;7.93;;;4.38;;
60169;SDS011;46042;49.444;6.862;2023-07-08T12:45:27;9.97;;;4.70;;
60169;SDS011;46042;49.444;6.862;2023-07-08T12:50:23;10.05;;;4.45;;
60169;SDS011;46042;49.444;6.862;2023-07-08T12:52:50;9.55;;;4.35;;
60169;SDS011;46042;49.444;6.862;2023-07-08T12:55:17;8.15;;;4.28;;
60169;SDS011;46042;49.444;6.862;2023-07-08T12:57:47;8.05;;;4.00;;
60169;SDS011;46042;49.444;6.862;2023-07-08T13:00:29;7.55;;;3.90;;
60169;SDS011;46042;49.444;6.862;2023-07-08T13:05:43;9.77;;;4.18;;
60169;SDS011;46042;49.444;6.862;2023-07-08T13:08:11;6.95;;;4.07;;
60169;SDS011;46042;49.444;6.862;2023-07-08T13:10:40;7.82;;;3.97;;
60169;SDS011;46042;49.444;6.862;2023-07-08T13:13:11;10.23;;;4.45;;
60169;SDS011;46042;49.444;6.862;2023-07-08T13:15:48;8.10;;;3.97;;
60169;SDS011;46042;49.444;6.862;2023-07-08T13:18:16;10.13;;;4.60;;
60169;SDS011;46042;49.444;6.862;2023-07-08T13:20:49;7.20;;;4.07;;
60169;SDS011;46042;49.444;6.862;2023-07-08T13:23:20;7.97;;;3.65;;
60169;SDS011;46042;49.444;6.862;2023-07-08T13:25:48;9.18;;;4.22;;
60169;SDS011;46042;49.444;6.862;2023-07-08T13:28:23;5.85;;;4.10;;
60169;SDS011;46042;49.444;6.862;2023-07-08T13:33:21;8.27;;;4.18;;
60169;SDS011;46042;49.444;6.862;2023-07-08T13:35:50;7.93;;;4.30;;
60169;SDS011;46042;49.444;6.862;2023-07-08T13:38:19;7.82;;;4.13;;
60169;SDS011;46042;49.444;6.862;2023-07-08T13:40:55;7.45;;;3.78;;
60169;SDS011;46042;49.444;6.862;2023-07-08T13:43:25;5.88;;;3.58;;
60169;SDS011;46042;49.444;6.862;2023-07-08T13:45:54;10.20;;;6.13;;
60169;SDS011;46042;49.444;6.862;2023-07-08T13:48:24;8.13;;;4.60;;
60169;SDS011;46042;49.444;6.862;2023-07-08T13:56:10;7.68;;;3.60;;
60169;SDS011;46042;49.444;6.862;2023-07-08T13:58:45;6.40;;;3.20;;
60169;SDS011;46042;49.444;6.862;2023-07-08T14:01:20;5.55;;;3.47;;
60169;SDS011;46042;49.444;6.862;2023-07-08T14:03:51;7.03;;;3.65;;
60169;SDS011;46042;49.444;6.862;2023-07-08T14:06:25;7.72;;;4.03;;
60169;SDS011;46042;49.444;6.862;2023-07-08T14:08:56;6.35;;;3.38;;
60169;SDS011;46042;49.444;6.862;2023-07-08T14:11:26;6.10;;;3.50;;
60169;SDS011;46042;49.444;6.862;2023-07-08T14:13:53;9.75;;;4.15;;
60169;SDS011;46042;49.444;6.862;2023-07-08T14:16:24;13.55;;;4.97;;
60169;SDS011;46042;49.444;6.862;2023-07-08T14:18:57;9.43;;;4.63;;
60169;SDS011;46042;49.444;6.862;2023-07-08T14:21:26;8.38;;;4.60;;
60169;SDS011;46042;49.444;6.862;2023-07-08T14:23:52;12.30;;;4.40;;
60169;SDS011;46042;49.444;6.862;2023-07-08T14:26:20;7.88;;;4.45;;
60169;SDS011;46042;49.444;6.862;2023-07-08T14:28:46;6.68;;;4.47;;
60169;SDS011;46042;49.444;6.862;2023-07-08T14:31:14;9.13;;;4.55;;
60169;SDS011;46042;49.444;6.862;2023-07-08T14:33:46;7.90;;;5.00;;
60169;SDS011;46042;49.444;6.862;2023-07-08T14:36:14;8.68;;;5.10;;
60169;SDS011;46042;49.444;6.862;2023-07-08T14:38:41;11.77;;;5.05;;
60169;SDS011;46042;49.444;6.862;2023-07-08T14:41:08;7.95;;;4.93;;
60169;SDS011;46042;49.444;6.862;2023-07-08T14:43:35;8.65;;;5.75;;
60169;SDS011;46042;49.444;6.862;2023-07-08T14:46:08;9.90;;;6.57;;
60169;SDS011;46042;49.444;6.862;2023-07-08T14:48:35;21.42;;;14.80;;
60169;SDS011;46042;49.444;6.862;2023-07-08T14:51:02;14.50;;;11.75;;
60169;SDS011;46042;49.444;6.862;2023-07-08T14:53:29;13.60;;;10.30;;
60169;SDS011;46042;49.444;6.862;2023-07-08T14:55:56;12.07;;;10.02;;
60169;SDS011;46042;49.444;6.862;2023-07-08T14:58:25;14.00;;;11.48;;
60169;SDS011;46042;49.444;6.862;2023-07-08T15:00:55;21.90;;;18.17;;
60169;SDS011;46042;49.444;6.862;2023-07-08T15:03:26;20.63;;;17.13;;
60169;SDS011;46042;49.444;6.862;2023-07-08T15:05:53;20.20;;;11.43;;
60169;SDS011;46042;49.444;6.862;2023-07-08T15:08:20;14.60;;;7.68;;
60169;SDS011;46042;49.444;6.862;2023-07-08T15:10:47;11.38;;;6.20;;
60169;SDS011;46042;49.444;6.862;2023-07-08T15:13:17;9.73;;;5.40;;
60169;SDS011;46042;49.444;6.862;2023-07-08T15:15:46;12.40;;;5.68;;
60169;SDS011;46042;49.444;6.862;2023-07-08T15:18:15;23.50;;;18.63;;
60169;SDS011;46042;49.444;6.862;2023-07-08T15:20:43;15.27;;;11.40;;
60169;SDS011;46042;49.444;6.862;2023-07-08T15:23:10;22.88;;;14.50;;
60169;SDS011;46042;49.444;6.862;2023-07-08T15:25:39;18.70;;;13.82;;
60169;SDS011;46042;49.444;6.862;2023-07-08T15:28:14;16.38;;;10.27;;
60169;SDS011;46042;49.444;6.862;2023-07-08T15:30:44;11.77;;;7.88;;
60169;SDS011;46042;49.444;6.862;2023-07-08T15:33:15;11.82;;;8.45;;
60169;SDS011;46042;49.444;6.862;2023-07-08T15:35:42;11.43;;;8.50;;
60169;SDS011;46042;49.444;6.862;2023-07-08T15:38:10;10.55;;;8.30;;
60169;SDS011;46042;49.444;6.862;2023-07-08T15:40:37;12.00;;;8.10;;
60169;SDS011;46042;49.444;6.862;2023-07-08T15:43:04;12.43;;;7.68;;
60169;SDS011;46042;49.444;6.862;2023-07-08T15:45:38;11.88;;;7.90;;
60169;SDS011;46042;49.444;6.862;2023-07-08T15:48:13;13.93;;;7.45;;
60169;SDS011;46042;49.444;6.862;2023-07-08T15:50:41;11.27;;;8.25;;
60169;SDS011;46042;49.444;6.862;2023-07-08T15:53:08;11.32;;;7.35;;
60169;SDS011;46042;49.444;6.862;2023-07-08T15:55:38;10.68;;;7.63;;
60169;SDS011;46042;49.444;6.862;2023-07-08T15:58:10;11.00;;;7.03;;
60169;SDS011;46042;49.444;6.862;2023-07-08T16:00:41;9.70;;;6.55;;
60169;SDS011;46042;49.444;6.862;2023-07-08T16:03:12;9.82;;;6.28;;
60169;SDS011;46042;49.444;6.862;2023-07-08T16:05:46;9.70;;;5.07;;
60169;SDS011;46042;49.444;6.862;2023-07-08T16:08:14;8.60;;;6.07;;
60169;SDS011;46042;49.444;6.862;2023-07-08T16:10:40;8.73;;;5.40;;
60169;SDS011;46042;49.444;6.862;2023-07-08T16:13:10;7.15;;;4.40;;
60169;SDS011;46042;49.444;6.862;2023-07-08T16:15:38;8.88;;;4.80;;
60169;SDS011;46042;49.444;6.862;2023-07-08T16:18:08;8.23;;;4.00;;
60169;SDS011;46042;49.444;6.862;2023-07-08T16:20:38;9.07;;;4.18;;
60169;SDS011;46042;49.444;6.862;2023-07-08T16:23:05;8.93;;;4.05;;